18 agosto 2022

Tempo Codice Tempo metereologico Temp. Vista Base nuvolosa Vento METAR/SPECI
21:20
V
21 °C 10 km+ - 350° 350° 3 kt METAR EDDG 181920Z AUTO 35003KT 320V020 CAVOK 21/15 Q1012 NOSIG
20:50
V
22 °C 10 km+ - 330° 330° 5 kt METAR EDDG 181850Z AUTO 33005KT CAVOK 22/16 Q1012 NOSIG
20:20
V
23 °C 10 km+ - 340° 340° 4 kt METAR EDDG 181820Z AUTO 34004KT CAVOK 23/16 Q1012 NOSIG
19:50
V
24 °C 10 km+ - 320° 320° 7 kt METAR EDDG 181750Z AUTO 32007KT 280V350 CAVOK 24/16 Q1012 NOSIG
19:20
V
24 °C 10 km+ - 330° 330° 5 kt METAR EDDG 181720Z AUTO 33005KT 290V350 9999 FEW030 24/16 Q1012 NOSIG
18:50
V
25 °C 10 km+ - 320° 320° 5 kt METAR EDDG 181650Z AUTO 32005KT 270V360 9999 FEW030 25/16 Q1012 NOSIG
18:20
V
25 °C 10 km+ - 320° 320° 5 kt METAR EDDG 181620Z AUTO 32005KT 270V360 CAVOK 25/16 Q1012 NOSIG
17:50
V
24 °C 10 km+ - 310° 310° 7 kt METAR EDDG 181550Z AUTO 31007KT 260V340 9999 FEW029 24/16 Q1012 NOSIG
17:20
V
25 °C 10 km+ - 330° 330° 10 kt METAR EDDG 181520Z AUTO 33010KT 290V350 9999 FEW031 25/16 Q1012 NOSIG
16:50
V
25 °C 10 km+ - 280° 280° 7 kt METAR EDDG 181450Z AUTO 28007KT 230V350 9999 FEW032 25/16 Q1012 NOSIG
16:20
V
25 °C 10 km+ - 260° 260° 7 kt METAR EDDG 181420Z AUTO 26007KT 230V300 9999 FEW029 25/16 Q1013 NOSIG
15:50
V
25 °C 10 km+ - 240° 240° 7 kt METAR EDDG 181350Z AUTO 24007KT 220V290 CAVOK 25/16 Q1013 NOSIG
15:20
V
24 °C 10 km+ - 270° 270° 5 kt METAR EDDG 181320Z AUTO 27005KT 220V340 9999 SCT030 24/16 Q1013 NOSIG
14:50
V
25 °C 10 km+ 4.900 ft 270° 270° 5 kt METAR EDDG 181250Z AUTO 27005KT 160V310 9999 SCT028 SCT034 BKN049 25/16 Q1013 NOSIG
14:20
V
24 °C 10 km+ 4.700 ft 140° 140° 4 kt METAR EDDG 181220Z AUTO 14004KT 090V210 9999 FEW025 BKN047 24/16 Q1013 NOSIG
13:50
V
23 °C 10 km+ 4.100 ft Var Var 2 kt METAR EDDG 181150Z AUTO VRB02KT 9999 OVC041 23/16 Q1013 NOSIG
13:20
V
22 °C 10 km+ 3.800 ft 310° 310° 3 kt METAR EDDG 181120Z AUTO 31003KT 240V030 9999 OVC038 22/16 Q1013 NOSIG
12:50
V
21 °C 10 km+ 3.100 ft 290° 290° 3 kt METAR EDDG 181050Z AUTO 29003KT 260V060 9999 FEW021 OVC031 21/17 Q1014 NOSIG
12:20
M
21 °C 10 km+ 1.800 ft 310° 310° 6 kt METAR EDDG 181020Z AUTO 31006KT 280V350 9999 BKN018 BKN025 OVC031 21/17 Q1013 NOSIG
11:50
M
21 °C 10 km+ 1.800 ft 290° 290° 3 kt METAR EDDG 180950Z AUTO 29003KT 230V030 9999 BKN018 BKN026 OVC032 21/17 Q1014 NOSIG
11:20
V
21 °C 10 km+ 3.100 ft 310° 310° 4 kt METAR EDDG 180920Z AUTO 31004KT 240V360 9999 FEW015 OVC031 21/17 Q1013 NOSIG
10:50
M
20 °C 10 km+ 2.500 ft 300° 300° 5 kt METAR EDDG 180850Z AUTO 30005KT 270V350 9999 FEW012 BKN025 OVC030 20/17 Q1013 NOSIG
10:20
M
20 °C 10 km+ 2.500 ft 310° 310° 4 kt METAR EDDG 180820Z AUTO 31004KT 270V350 9999 SCT012 OVC025 20/17 Q1013 TEMPO BKN012
09:50
M
20 °C 10 km+ 1.500 ft 300° 300° 4 kt METAR EDDG 180750Z AUTO 30004KT 260V340 9999 SCT010 BKN015 OVC023 20/17 Q1013 TEMPO BKN010
09:20
M
20 °C 7 km 1.500 ft 260° 260° 4 kt METAR EDDG 180720Z AUTO 26004KT 210V300 7000 FEW008 BKN015 OVC021 20/18 Q1013 TEMPO BKN012
08:50
I
19 °C 4,3 km 1.200 ft 250° 250° 3 kt METAR EDDG 180650Z AUTO 25003KT 210V290 4300 BR BKN012 OVC026 19/18 Q1013 BECMG 6000 BKN015
08:20
I
19 °C 3,3 km 1.100 ft 220° 220° 3 kt METAR EDDG 180620Z AUTO 22003KT 190V260 3300 BR SCT007 BKN011 OVC028 19/17 Q1012 BECMG 6000 BKN015
07:50
I
18 °C 3,1 km 700 ft 190° 190° 4 kt METAR EDDG 180550Z AUTO 19004KT 170V230 3100 BR BKN007 18/17 Q1012 BECMG 6000 BKN020
07:20
I
18 °C 3,2 km 800 ft 170° 170° 4 kt METAR EDDG 180520Z AUTO 17004KT 150V220 3200 BR OVC008 18/17 Q1012 BECMG 6000 BKN020
06:50
I
18 °C 3,6 km 900 ft 160° 160° 3 kt METAR EDDG 180450Z AUTO 16003KT 3600 BR BKN009 BKN012 OVC024 18/17 Q1012 BECMG 6000 BKN020
06:20
I
18 °C 4,2 km 2.200 ft 160° 160° 2 kt METAR EDDG 180420Z AUTO 16002KT 4200 BR FEW016 BKN022 18/17 Q1012 TEMPO BKN010
05:50
I
18 °C 4,8 km 1.600 ft Var Var 2 kt METAR EDDG 180350Z AUTO VRB02KT 4800 BR FEW008 BKN016 18/17 Q1012 TEMPO 3000 BR BKN005
05:20
I
19 °C 4,7 km 800 ft 230° 230° 4 kt METAR EDDG 180320Z AUTO 23004KT 200V270 4700 BR BKN008 OVC013 19/17 Q1012 NOSIG
04:50
L
18 °C 3,6 km 200 ft 230° 230° 5 kt METAR EDDG 180250Z AUTO 23005KT 190V250 3600 BR BKN002 OVC005 18/18 Q1012 NOSIG
04:20
L
18 °C 600 m 100 ft 260° 260° 3 kt METAR EDDG 180220Z AUTO 26003KT 0900 0600 R25/0700D FG OVC001 18/18 Q1012 TEMPO 0300 FG
03:50
L
18 °C 550 m 300 ft 260° 260° 4 kt METAR EDDG 180150Z AUTO 26004KT 0600 0550 R25/0900U FG VV003 18/18 Q1012 NOSIG
03:20
L
17 °C 2,2 km 300 ft 280° 280° 3 kt METAR EDDG 180120Z AUTO 28003KT 2200 BR BKN003 17/17 Q1012 NOSIG
02:50
I
17 °C 2,8 km - Var Var 2 kt METAR EDDG 180050Z AUTO VRB02KT 2800 BR FEW006 17/16 Q1012 BECMG 4000 BKN005
02:20
M
17 °C 6 km - 150° 150° 3 kt METAR EDDG 180020Z AUTO 15003KT 6000 NSC 17/17 Q1012 BECMG 3000 BR BKN005
01:50
M
17 °C 5 km - Var Var 1 kt METAR EDDG 172350Z AUTO VRB01KT 5000 BR FEW011 17/16 Q1012 TEMPO 0700 FG
01:20
I
17 °C 4,9 km - 120° 120° 1 kt METAR EDDG 172320Z AUTO 12001KT 4900 BR NCD 17/17 Q1012 TEMPO 6000 BKN008
00:50
M
17 °C 5 km - Var Var 2 kt METAR EDDG 172250Z AUTO VRB02KT 5000 BR FEW023 17/17 Q1012 TEMPO 4000 BR BKN008
00:20
I
18 °C 2,1 km - 030° 030° 1 kt METAR EDDG 172220Z AUTO 03001KT 6000 2100 BR NCD 18/17 Q1012 TEMPO 4000 BR BKN008

17 agosto 2022

Tempo Codice Tempo metereologico Temp. Vista Base nuvolosa Vento METAR/SPECI
23:50
V
19 °C 10 km+ - Var Var 2 kt METAR EDDG 172150Z AUTO VRB02KT CAVOK 19/18 Q1012 TEMPO BKN013
23:20
V
19 °C 10 km+ - 290° 290° 4 kt METAR EDDG 172120Z AUTO 29004KT 9999 FEW019 19/18 Q1011 TEMPO BKN013
22:50
V
20 °C 10 km+ - Var Var 2 kt METAR EDDG 172050Z AUTO VRB02KT CAVOK 20/18 Q1011 NOSIG
22:20
V
20 °C 10 km+ - 270° 270° 4 kt METAR EDDG 172020Z AUTO 27004KT 9999 FEW020 20/18 Q1011 NOSIG
21:50
V
21 °C 10 km+ - 290° 290° 4 kt METAR EDDG 171950Z AUTO 29004KT 270V330 9999 FEW015 21/19 Q1011 NOSIG
21:20
V
22 °C 8 km - 270° 270° 6 kt METAR EDDG 171920Z AUTO 27006KT 8000 FEW015 22/19 Q1011 TEMPO 4000 BR
20:50
V
22 °C 9 km - 270° 270° 7 kt METAR EDDG 171850Z AUTO 27007KT 9000 NSC 22/19 Q1011 NOSIG
20:20
V
23 °C 10 km+ - 270° 270° 9 kt METAR EDDG 171820Z AUTO 27009KT CAVOK 23/19 Q1010 NOSIG
19:50
V
24 °C 10 km+ - 260° 260° 9 kt METAR EDDG 171750Z AUTO 26009KT 9999 -SHRA FEW///CB 24/19 Q1010 NOSIG
19:20
V
25 °C 10 km+ - 270° 270° 7 kt METAR EDDG 171720Z AUTO 27007KT 9999 -SHRA FEW///TCU 25/19 Q1010 NOSIG
18:50
V
25 °C 10 km+ - 260° 260° 10 kt METAR EDDG 171650Z AUTO 26010KT CAVOK 25/18 Q1009 BECMG 30005KT
18:20
V
27 °C 10 km+ - 230° 230° 7 kt METAR EDDG 171620Z AUTO 23007KT 210V270 CAVOK 27/17 Q1009
17:50
V
27 °C 10 km+ - 230° 230° 5 kt METAR EDDG 171550Z AUTO 23005KT 190V280 CAVOK 27/18 Q1009 NOSIG
17:20
V
26 °C 10 km+ - 290° 290° 4 kt METAR EDDG 171520Z AUTO 29004KT 230V340 CAVOK 26/19 Q1009 NOSIG
16:50
V
27 °C 10 km+ - Var Var 2 kt METAR EDDG 171450Z AUTO VRB02KT CAVOK 27/17 Q1009 NOSIG
16:20
V
25 °C 10 km+ - Var Var 2 kt METAR EDDG 171420Z AUTO VRB02KT CAVOK 25/19 Q1009 NOSIG
15:50
V
23 °C 10 km+ - Var Var 2 kt METAR EDDG 171350Z AUTO VRB02KT CAVOK 23/17 Q1010 NOSIG
15:20
V
22 °C 10 km+ - Var Var 2 kt METAR EDDG 171320Z AUTO VRB02KT 9999 -SHRA FEW048 FEW///TCU 22/19 Q1010 RESHRA NOSIG
14:50
I
22 °C 1,8 km - 180° 180° 16 - 30 kt METAR EDDG 171250Z AUTO 18016G30KT 120V220 8000 1800 SHRA FEW036 SCT///CB 22/18 Q1011 TEMPO 4000
14:20
V
29 °C 10 km+ - 140° 140° 3 kt METAR EDDG 171220Z AUTO 14003KT 100V180 9999 VCSH FEW///TCU 29/15 Q1010 TEMPO SHRA SCT030TCU
13:50
V
29 °C 10 km+ - Var Var 2 kt METAR EDDG 171150Z AUTO VRB02KT CAVOK 29/14 Q1010 NOSIG
13:20
V
28 °C 10 km+ - 220° 220° 4 kt METAR EDDG 171120Z AUTO 22004KT 180V260 CAVOK 28/14 Q1010 NOSIG
12:50
V
29 °C 10 km+ - Var Var 3 kt METAR EDDG 171050Z AUTO VRB03KT CAVOK 29/13 Q1010 NOSIG
12:20
V
29 °C 10 km+ - 150° 150° 5 kt METAR EDDG 171020Z AUTO 15005KT 120V180 CAVOK 29/14 Q1010
11:50
V
28 °C 10 km+ - 120° 120° 5 kt METAR EDDG 170950Z AUTO 12005KT 050V180 CAVOK 28/14 Q1010 NOSIG
11:20
V
27 °C 10 km+ - 100° 100° 4 kt METAR EDDG 170920Z AUTO 10004KT 030V170 CAVOK 27/14 Q1010
10:50
V
26 °C 10 km+ - 130° 130° 5 kt METAR EDDG 170850Z AUTO 13005KT 090V160 CAVOK 26/14 Q1010 NOSIG
10:20
V
26 °C 10 km+ - 130° 130° 5 kt METAR EDDG 170820Z AUTO 13005KT 070V160 CAVOK 26/14 Q1010 NOSIG
09:50
V
25 °C 10 km+ - 100° 100° 4 kt METAR EDDG 170750Z AUTO 10004KT 020V160 CAVOK 25/15 Q1010 NOSIG
09:20
V
23 °C 10 km+ - 100° 100° 3 kt METAR EDDG 170720Z AUTO 10003KT 030V200 CAVOK 23/15 Q1010 NOSIG
08:50
V
22 °C 10 km+ - Var Var 3 kt METAR EDDG 170650Z AUTO VRB03KT CAVOK 22/15 Q1010 NOSIG
08:20
V
20 °C 10 km+ - Var Var 3 kt METAR EDDG 170620Z AUTO VRB03KT CAVOK 20/15 Q1010 NOSIG
07:50
V
18 °C 10 km+ - Var Var 1 kt METAR EDDG 170550Z AUTO VRB01KT CAVOK 18/16 Q1010 NOSIG
07:20
V
17 °C 10 km+ - Var Var 1 kt METAR EDDG 170520Z AUTO VRB01KT CAVOK 17/15 Q1010 NOSIG
06:50
V
17 °C 10 km+ - 280° 280° 1 kt METAR EDDG 170450Z AUTO 28001KT CAVOK 17/15 Q1010 NOSIG
06:20
V
16 °C 10 km+ - 150° 150° 1 kt METAR EDDG 170420Z AUTO 15001KT CAVOK 16/15 Q1010
05:50
V
17 °C 10 km+ - 080° 080° 1 kt METAR EDDG 170350Z AUTO 08001KT CAVOK 17/15 Q1010 NOSIG
05:20
V
18 °C 10 km+ - Var Var 1 kt METAR EDDG 170320Z AUTO VRB01KT CAVOK 18/15 Q1010 NOSIG
04:50
V
19 °C 10 km+ - 060° 060° 3 kt METAR EDDG 170250Z AUTO 06003KT 030V100 CAVOK 19/15 Q1010 NOSIG
04:20
V
20 °C 10 km+ - 080° 080° 3 kt METAR EDDG 170220Z AUTO 08003KT 040V110 CAVOK 20/15 Q1010 NOSIG
03:50
V
20 °C 10 km+ - 050° 050° 3 kt METAR EDDG 170150Z AUTO 05003KT 010V090 CAVOK 20/16 Q1010 NOSIG
03:20
V
20 °C 10 km+ - 040° 040° 4 kt METAR EDDG 170120Z AUTO 04004KT 360V090 CAVOK 20/16 Q1010 NOSIG
02:50
V
20 °C 10 km+ - 040° 040° 4 kt METAR EDDG 170050Z AUTO 04004KT 360V080 CAVOK 20/16 Q1010 NOSIG
02:20
V
19 °C 10 km+ - Var Var 2 kt METAR EDDG 170020Z AUTO VRB02KT CAVOK 19/16 Q1010 NOSIG
01:50
V
19 °C 10 km+ - Var Var 2 kt METAR EDDG 162350Z AUTO VRB02KT CAVOK 19/16 Q1010 NOSIG
01:20
V
20 °C 10 km+ - 050° 050° 3 kt METAR EDDG 162320Z AUTO 05003KT 010V090 CAVOK 20/16 Q1010 NOSIG
00:50
V
19 °C 10 km+ - Var Var 1 kt METAR EDDG 162250Z AUTO VRB01KT CAVOK 19/15 Q1010 NOSIG
00:20
V
20 °C 10 km+ - Var Var 2 kt METAR EDDG 162220Z AUTO VRB02KT CAVOK 20/14 Q1011 NOSIG

16 agosto 2022

Tempo Codice Tempo metereologico Temp. Vista Base nuvolosa Vento METAR/SPECI
23:50
V
20 °C 10 km+ - Var 000° 0 kt METAR EDDG 162150Z AUTO 00000KT CAVOK 20/14 Q1010 NOSIG
23:20
V
21 °C 10 km+ - 030° 030° 1 kt METAR EDDG 162120Z AUTO 03001KT CAVOK 21/14 Q1010 NOSIG
22:50
V
21 °C 10 km+ - 010° 010° 3 kt METAR EDDG 162050Z AUTO 01003KT 320V070 CAVOK 21/14 Q1010 NOSIG
22:20
V
23 °C 10 km+ - 360° 360° 4 kt METAR EDDG 162020Z AUTO 36004KT CAVOK 23/14 Q1010 NOSIG
21:50
V
22 °C 10 km+ - Var Var 1 kt METAR EDDG 161950Z AUTO VRB01KT CAVOK 22/14 Q1010 NOSIG
21:20
V
23 °C 10 km+ - 130° 130° 1 kt METAR EDDG 161920Z AUTO 13001KT CAVOK 23/13 Q1009 NOSIG
20:50
V
25 °C 10 km+ - Var Var 2 kt METAR EDDG 161850Z AUTO VRB02KT CAVOK 25/13 Q1009 NOSIG
20:20
V
27 °C 10 km+ - 310° 310° 3 kt METAR EDDG 161820Z AUTO 31003KT 270V330 CAVOK 27/13 Q1009 NOSIG
19:50
V
27 °C 10 km+ - 280° 280° 4 kt METAR EDDG 161750Z AUTO 28004KT CAVOK 27/12 Q1008 NOSIG
19:20
V
28 °C 10 km+ - 270° 270° 6 kt METAR EDDG 161720Z AUTO 27006KT CAVOK 28/12 Q1008 NOSIG
18:50
V
29 °C 10 km+ - 260° 260° 8 kt METAR EDDG 161650Z AUTO 26008KT 210V290 CAVOK 29/12 Q1008 NOSIG
18:20
V
30 °C 10 km+ - 250° 250° 8 kt METAR EDDG 161620Z AUTO 25008KT 220V300 CAVOK 30/12 Q1008 BECMG 26003KT
17:50
V
31 °C 10 km+ - 230° 230° 6 kt METAR EDDG 161550Z AUTO 23006KT 170V280 CAVOK 31/13 Q1008 NOSIG
17:20
V
29 °C 10 km+ - 210° 210° 8 kt METAR EDDG 161520Z AUTO 21008KT 180V240 CAVOK 29/13 Q1008 BECMG 26003KT
16:50
V
30 °C 10 km+ - 210° 210° 8 kt METAR EDDG 161450Z AUTO 21008KT 160V250 CAVOK 30/13 Q1008 NOSIG
Dati più vecchi

Noi e le terze parti seguiamo il tuo comportamento in internet sul nostro sito web con i cookie. Se continui, riteniamo che tu sia d'accordo con la nostra politica sui cookie. Per saperne di più